sensor_id;sensor_type;location;lat;lon;timestamp;temperature;humidity
40738;DHT22;54759;48.094;-1.628;2022-09-09T00:00:25;24.30;59.10
40738;DHT22;54759;48.094;-1.628;2022-09-09T00:03:27;23.80;58.80
40738;DHT22;54759;48.094;-1.628;2022-09-09T00:06:33;24.10;59.00
40738;DHT22;54759;48.094;-1.628;2022-09-09T00:09:39;23.80;58.90
40738;DHT22;54759;48.094;-1.628;2022-09-09T00:12:43;24.00;59.00
40738;DHT22;54759;48.094;-1.628;2022-09-09T00:15:52;24.20;59.10
40738;DHT22;54759;48.094;-1.628;2022-09-09T00:18:59;23.90;59.00
40738;DHT22;54759;48.094;-1.628;2022-09-09T00:22:06;23.90;59.00
40738;DHT22;54759;48.094;-1.628;2022-09-09T00:25:11;24.00;59.10
40738;DHT22;54759;48.094;-1.628;2022-09-09T00:28:13;23.80;58.90
40738;DHT22;54759;48.094;-1.628;2022-09-09T00:31:20;24.10;59.10
40738;DHT22;54759;48.094;-1.628;2022-09-09T00:34:23;24.10;59.20
40738;DHT22;54759;48.094;-1.628;2022-09-09T00:37:28;24.10;59.20
40738;DHT22;54759;48.094;-1.628;2022-09-09T00:40:33;23.90;59.00
40738;DHT22;54759;48.094;-1.628;2022-09-09T00:43:35;24.00;59.10
40738;DHT22;54759;48.094;-1.628;2022-09-09T00:46:41;24.10;59.10
40738;DHT22;54759;48.094;-1.628;2022-09-09T00:49:49;23.80;59.00
40738;DHT22;54759;48.094;-1.628;2022-09-09T00:53:05;24.00;59.10
40738;DHT22;54759;48.094;-1.628;2022-09-09T00:56:12;23.90;59.10
40738;DHT22;54759;48.094;-1.628;2022-09-09T00:59:16;23.70;58.90
40738;DHT22;54759;48.094;-1.628;2022-09-09T01:02:25;23.70;59.00
40738;DHT22;54759;48.094;-1.628;2022-09-09T01:05:30;23.80;59.00
40738;DHT22;54759;48.094;-1.628;2022-09-09T01:08:42;24.00;59.10
40738;DHT22;54759;48.094;-1.628;2022-09-09T01:11:49;23.80;59.10
40738;DHT22;54759;48.094;-1.628;2022-09-09T01:14:55;24.10;59.20
40738;DHT22;54759;48.094;-1.628;2022-09-09T01:17:59;24.00;59.10
40738;DHT22;54759;48.094;-1.628;2022-09-09T01:21:05;24.00;59.20
40738;DHT22;54759;48.094;-1.628;2022-09-09T01:24:15;23.70;59.00
40738;DHT22;54759;48.094;-1.628;2022-09-09T01:27:32;23.90;59.10
40738;DHT22;54759;48.094;-1.628;2022-09-09T01:30:34;23.70;59.00
40738;DHT22;54759;48.094;-1.628;2022-09-09T01:33:37;23.70;59.00
40738;DHT22;54759;48.094;-1.628;2022-09-09T01:36:39;24.00;59.20
40738;DHT22;54759;48.094;-1.628;2022-09-09T01:39:43;23.60;59.00
40738;DHT22;54759;48.094;-1.628;2022-09-09T01:42:49;23.80;59.10
40738;DHT22;54759;48.094;-1.628;2022-09-09T01:45:52;24.00;59.20
40738;DHT22;54759;48.094;-1.628;2022-09-09T01:48:55;23.90;59.10
40738;DHT22;54759;48.094;-1.628;2022-09-09T01:51:58;23.90;59.20
40738;DHT22;54759;48.094;-1.628;2022-09-09T01:55:07;23.70;59.10
40738;DHT22;54759;48.094;-1.628;2022-09-09T01:58:17;23.70;59.10
40738;DHT22;54759;48.094;-1.628;2022-09-09T02:01:28;23.60;59.10
40738;DHT22;54759;48.094;-1.628;2022-09-09T02:04:39;23.90;59.20
40738;DHT22;54759;48.094;-1.628;2022-09-09T02:07:47;23.70;59.10
40738;DHT22;54759;48.094;-1.628;2022-09-09T02:11:05;24.00;59.30
40738;DHT22;54759;48.094;-1.628;2022-09-09T02:14:17;23.50;59.00
40738;DHT22;54759;48.094;-1.628;2022-09-09T02:17:24;23.90;59.20
40738;DHT22;54759;48.094;-1.628;2022-09-09T02:20:33;23.90;59.20
40738;DHT22;54759;48.094;-1.628;2022-09-09T02:23:37;23.90;59.20
40738;DHT22;54759;48.094;-1.628;2022-09-09T02:26:43;23.70;59.20
40738;DHT22;54759;48.094;-1.628;2022-09-09T02:29:49;23.60;59.10
40738;DHT22;54759;48.094;-1.628;2022-09-09T02:32:57;23.90;59.20
40738;DHT22;54759;48.094;-1.628;2022-09-09T02:36:12;23.50;59.00
40738;DHT22;54759;48.094;-1.628;2022-09-09T02:39:18;23.40;58.90
40738;DHT22;54759;48.094;-1.628;2022-09-09T02:42:21;23.70;59.10
40738;DHT22;54759;48.094;-1.628;2022-09-09T02:45:27;23.40;58.90
40738;DHT22;54759;48.094;-1.628;2022-09-09T02:48:32;23.60;59.00
40738;DHT22;54759;48.094;-1.628;2022-09-09T02:51:40;24.00;59.80
40738;DHT22;54759;48.094;-1.628;2022-09-09T02:54:47;23.90;59.20
40738;DHT22;54759;48.094;-1.628;2022-09-09T02:57:51;23.60;59.00
40738;DHT22;54759;48.094;-1.628;2022-09-09T03:00:54;23.90;59.20
40738;DHT22;54759;48.094;-1.628;2022-09-09T03:03:58;23.70;59.10
40738;DHT22;54759;48.094;-1.628;2022-09-09T03:06:59;23.90;59.20
40738;DHT22;54759;48.094;-1.628;2022-09-09T03:10:01;23.70;59.10
40738;DHT22;54759;48.094;-1.628;2022-09-09T03:13:02;23.80;59.20
40738;DHT22;54759;48.094;-1.628;2022-09-09T03:16:08;23.50;59.00
40738;DHT22;54759;48.094;-1.628;2022-09-09T03:19:16;23.70;59.70
40738;DHT22;54759;48.094;-1.628;2022-09-09T03:22:19;23.80;59.10
40738;DHT22;54759;48.094;-1.628;2022-09-09T03:25:22;23.60;59.10
40738;DHT22;54759;48.094;-1.628;2022-09-09T03:28:26;23.60;59.00
40738;DHT22;54759;48.094;-1.628;2022-09-09T03:31:34;23.90;59.20
40738;DHT22;54759;48.094;-1.628;2022-09-09T03:34:37;23.50;59.00
40738;DHT22;54759;48.094;-1.628;2022-09-09T03:37:41;23.90;59.20
40738;DHT22;54759;48.094;-1.628;2022-09-09T03:40:48;23.90;59.30
40738;DHT22;54759;48.094;-1.628;2022-09-09T03:43:50;23.40;59.00
40738;DHT22;54759;48.094;-1.628;2022-09-09T03:46:53;23.70;59.20
40738;DHT22;54759;48.094;-1.628;2022-09-09T03:49:58;24.00;59.30
40738;DHT22;54759;48.094;-1.628;2022-09-09T03:52:59;23.90;59.20
40738;DHT22;54759;48.094;-1.628;2022-09-09T03:56:01;24.10;59.30
40738;DHT22;54759;48.094;-1.628;2022-09-09T03:59:04;23.90;59.20
40738;DHT22;54759;48.094;-1.628;2022-09-09T04:02:07;23.80;59.30
40738;DHT22;54759;48.094;-1.628;2022-09-09T04:05:08;23.40;59.00
40738;DHT22;54759;48.094;-1.628;2022-09-09T04:08:13;23.90;59.20
40738;DHT22;54759;48.094;-1.628;2022-09-09T04:11:15;23.50;59.00
40738;DHT22;54759;48.094;-1.628;2022-09-09T04:14:18;23.60;59.10
40738;DHT22;54759;48.094;-1.628;2022-09-09T04:17:20;23.50;59.00
40738;DHT22;54759;48.094;-1.628;2022-09-09T04:20:25;23.90;59.30
40738;DHT22;54759;48.094;-1.628;2022-09-09T04:23:27;24.00;59.30
40738;DHT22;54759;48.094;-1.628;2022-09-09T04:26:31;23.60;59.00
40738;DHT22;54759;48.094;-1.628;2022-09-09T04:29:34;23.90;59.20
40738;DHT22;54759;48.094;-1.628;2022-09-09T04:32:37;23.80;59.20
40738;DHT22;54759;48.094;-1.628;2022-09-09T04:35:38;23.50;59.00
40738;DHT22;54759;48.094;-1.628;2022-09-09T04:38:40;23.90;59.20
40738;DHT22;54759;48.094;-1.628;2022-09-09T04:41:41;23.40;59.00
40738;DHT22;54759;48.094;-1.628;2022-09-09T04:44:44;23.80;59.20
40738;DHT22;54759;48.094;-1.628;2022-09-09T04:47:46;23.80;59.20
40738;DHT22;54759;48.094;-1.628;2022-09-09T04:50:59;23.80;59.30
40738;DHT22;54759;48.094;-1.628;2022-09-09T04:54:03;23.70;59.10
40738;DHT22;54759;48.094;-1.628;2022-09-09T04:57:05;23.60;59.20
40738;DHT22;54759;48.094;-1.628;2022-09-09T05:00:07;23.40;59.00
40738;DHT22;54759;48.094;-1.628;2022-09-09T05:03:13;23.80;59.20
40738;DHT22;54759;48.094;-1.628;2022-09-09T05:06:15;23.40;59.00
40738;DHT22;54759;48.094;-1.628;2022-09-09T05:09:17;23.60;59.10
40738;DHT22;54759;48.094;-1.628;2022-09-09T05:12:19;23.60;59.10
40738;DHT22;54759;48.094;-1.628;2022-09-09T05:15:25;23.90;59.30
40738;DHT22;54759;48.094;-1.628;2022-09-09T05:18:27;23.70;59.20
40738;DHT22;54759;48.094;-1.628;2022-09-09T05:21:29;23.70;59.20
40738;DHT22;54759;48.094;-1.628;2022-09-09T05:24:31;23.40;59.00
40738;DHT22;54759;48.094;-1.628;2022-09-09T05:27:35;23.40;59.00
40738;DHT22;54759;48.094;-1.628;2022-09-09T05:30:36;23.60;59.10
40738;DHT22;54759;48.094;-1.628;2022-09-09T05:33:40;23.50;59.10
40738;DHT22;54759;48.094;-1.628;2022-09-09T05:36:42;23.50;59.10
40738;DHT22;54759;48.094;-1.628;2022-09-09T05:39:44;23.40;59.00
40738;DHT22;54759;48.094;-1.628;2022-09-09T05:42:45;23.70;59.20
40738;DHT22;54759;48.094;-1.628;2022-09-09T05:45:47;23.70;59.30
40738;DHT22;54759;48.094;-1.628;2022-09-09T05:48:50;23.30;59.00
40738;DHT22;54759;48.094;-1.628;2022-09-09T05:51:53;23.60;59.20
40738;DHT22;54759;48.094;-1.628;2022-09-09T05:54:56;23.30;59.00
40738;DHT22;54759;48.094;-1.628;2022-09-09T05:58:01;23.70;59.30
40738;DHT22;54759;48.094;-1.628;2022-09-09T06:01:03;23.40;59.00
40738;DHT22;54759;48.094;-1.628;2022-09-09T06:04:06;23.60;59.10
40738;DHT22;54759;48.094;-1.628;2022-09-09T06:07:08;23.50;59.10
40738;DHT22;54759;48.094;-1.628;2022-09-09T06:10:10;23.40;59.10
40738;DHT22;54759;48.094;-1.628;2022-09-09T06:13:12;23.90;59.30
40738;DHT22;54759;48.094;-1.628;2022-09-09T06:16:16;23.40;59.00
40738;DHT22;54759;48.094;-1.628;2022-09-09T06:19:19;23.30;58.90
40738;DHT22;54759;48.094;-1.628;2022-09-09T06:22:22;23.70;59.10
40738;DHT22;54759;48.094;-1.628;2022-09-09T06:25:23;23.90;59.20
40738;DHT22;54759;48.094;-1.628;2022-09-09T06:28:26;23.70;59.00
40738;DHT22;54759;48.094;-1.628;2022-09-09T06:31:28;23.80;59.00
40738;DHT22;54759;48.094;-1.628;2022-09-09T06:34:34;23.60;58.80
40738;DHT22;54759;48.094;-1.628;2022-09-09T06:37:37;23.70;58.90
40738;DHT22;54759;48.094;-1.628;2022-09-09T06:40:39;23.70;58.90
40738;DHT22;54759;48.094;-1.628;2022-09-09T06:43:41;23.70;59.00
40738;DHT22;54759;48.094;-1.628;2022-09-09T06:46:42;23.50;58.90
40738;DHT22;54759;48.094;-1.628;2022-09-09T06:49:46;23.80;59.20
40738;DHT22;54759;48.094;-1.628;2022-09-09T06:52:50;23.80;59.20
40738;DHT22;54759;48.094;-1.628;2022-09-09T06:55:52;23.70;59.20
40738;DHT22;54759;48.094;-1.628;2022-09-09T06:58:56;23.80;59.30
40738;DHT22;54759;48.094;-1.628;2022-09-09T07:02:00;23.90;59.20
40738;DHT22;54759;48.094;-1.628;2022-09-09T07:05:04;23.60;59.00
40738;DHT22;54759;48.094;-1.628;2022-09-09T07:08:05;23.80;59.10
40738;DHT22;54759;48.094;-1.628;2022-09-09T07:11:07;23.60;58.90
40738;DHT22;54759;48.094;-1.628;2022-09-09T07:14:14;24.00;58.90
40738;DHT22;54759;48.094;-1.628;2022-09-09T07:17:20;23.70;58.70
40738;DHT22;54759;48.094;-1.628;2022-09-09T07:20:22;23.90;58.70
40738;DHT22;54759;48.094;-1.628;2022-09-09T07:23:24;24.00;58.70
40738;DHT22;54759;48.094;-1.628;2022-09-09T07:26:27;23.90;58.60
40738;DHT22;54759;48.094;-1.628;2022-09-09T07:29:30;24.00;58.70
40738;DHT22;54759;48.094;-1.628;2022-09-09T07:32:31;24.00;58.50
40738;DHT22;54759;48.094;-1.628;2022-09-09T07:35:34;24.00;58.50
40738;DHT22;54759;48.094;-1.628;2022-09-09T07:38:37;24.10;58.50
40738;DHT22;54759;48.094;-1.628;2022-09-09T07:41:40;23.70;58.30
40738;DHT22;54759;48.094;-1.628;2022-09-09T07:44:42;24.00;58.50
40738;DHT22;54759;48.094;-1.628;2022-09-09T07:47:47;23.90;58.50
40738;DHT22;54759;48.094;-1.628;2022-09-09T07:50:50;24.10;58.60
40738;DHT22;54759;48.094;-1.628;2022-09-09T07:53:53;23.80;58.40
40738;DHT22;54759;48.094;-1.628;2022-09-09T07:56:54;24.10;58.60
40738;DHT22;54759;48.094;-1.628;2022-09-09T07:59:59;24.10;58.60
40738;DHT22;54759;48.094;-1.628;2022-09-09T08:03:02;24.10;58.70
40738;DHT22;54759;48.094;-1.628;2022-09-09T08:06:06;24.30;58.60
40738;DHT22;54759;48.094;-1.628;2022-09-09T08:09:08;23.80;58.30
40738;DHT22;54759;48.094;-1.628;2022-09-09T08:12:11;23.80;58.30
40738;DHT22;54759;48.094;-1.628;2022-09-09T08:15:14;24.00;58.40
40738;DHT22;54759;48.094;-1.628;2022-09-09T08:18:15;24.00;58.40
40738;DHT22;54759;48.094;-1.628;2022-09-09T08:21:19;24.30;58.60
40738;DHT22;54759;48.094;-1.628;2022-09-09T08:24:22;24.20;58.50
40738;DHT22;54759;48.094;-1.628;2022-09-09T08:27:25;24.00;58.40
40738;DHT22;54759;48.094;-1.628;2022-09-09T08:30:28;24.10;58.40
40738;DHT22;54759;48.094;-1.628;2022-09-09T08:33:30;24.10;58.40
40738;DHT22;54759;48.094;-1.628;2022-09-09T08:36:33;24.20;59.00
40738;DHT22;54759;48.094;-1.628;2022-09-09T08:39:35;24.20;58.40
40738;DHT22;54759;48.094;-1.628;2022-09-09T08:42:39;22.40;57.50
40738;DHT22;54759;48.094;-1.628;2022-09-09T08:45:43;24.20;58.40
40738;DHT22;54759;48.094;-1.628;2022-09-09T08:48:50;24.10;58.40
40738;DHT22;54759;48.094;-1.628;2022-09-09T08:51:54;24.20;58.40
40738;DHT22;54759;48.094;-1.628;2022-09-09T08:55:03;24.20;58.30
40738;DHT22;54759;48.094;-1.628;2022-09-09T08:58:09;24.10;58.20
40738;DHT22;54759;48.094;-1.628;2022-09-09T09:04:33;24.20;58.30
40738;DHT22;54759;48.094;-1.628;2022-09-09T09:07:44;24.50;58.50
40738;DHT22;54759;48.094;-1.628;2022-09-09T09:10:51;24.10;58.80
40738;DHT22;54759;48.094;-1.628;2022-09-09T09:13:58;24.20;58.30
40738;DHT22;54759;48.094;-1.628;2022-09-09T09:17:04;23.90;58.10
40738;DHT22;54759;48.094;-1.628;2022-09-09T09:20:11;23.80;58.00
40738;DHT22;54759;48.094;-1.628;2022-09-09T09:23:15;23.90;58.00
40738;DHT22;54759;48.094;-1.628;2022-09-09T09:26:19;23.90;58.10
40738;DHT22;54759;48.094;-1.628;2022-09-09T09:29:20;24.30;58.30
40738;DHT22;54759;48.094;-1.628;2022-09-09T09:32:24;24.10;58.10
40738;DHT22;54759;48.094;-1.628;2022-09-09T09:35:26;24.30;58.20
40738;DHT22;54759;48.094;-1.628;2022-09-09T09:38:28;24.10;58.20
40738;DHT22;54759;48.094;-1.628;2022-09-09T09:41:51;24.10;58.10
40738;DHT22;54759;48.094;-1.628;2022-09-09T09:45:07;24.20;58.10
40738;DHT22;54759;48.094;-1.628;2022-09-09T09:48:09;24.20;58.00
40738;DHT22;54759;48.094;-1.628;2022-09-09T09:51:22;24.00;57.90
40738;DHT22;54759;48.094;-1.628;2022-09-09T09:54:27;24.20;58.00
40738;DHT22;54759;48.094;-1.628;2022-09-09T09:57:32;24.10;58.00
40738;DHT22;54759;48.094;-1.628;2022-09-09T10:00:37;24.30;58.10
40738;DHT22;54759;48.094;-1.628;2022-09-09T10:03:51;24.20;57.90
40738;DHT22;54759;48.094;-1.628;2022-09-09T10:06:52;24.50;58.10
40738;DHT22;54759;48.094;-1.628;2022-09-09T10:09:55;24.50;58.10
40738;DHT22;54759;48.094;-1.628;2022-09-09T10:12:59;24.20;57.90
40738;DHT22;54759;48.094;-1.628;2022-09-09T10:16:11;24.30;57.90
40738;DHT22;54759;48.094;-1.628;2022-09-09T10:19:16;24.30;57.90
40738;DHT22;54759;48.094;-1.628;2022-09-09T10:22:24;24.30;58.00
40738;DHT22;54759;48.094;-1.628;2022-09-09T10:25:29;24.60;58.00
40738;DHT22;54759;48.094;-1.628;2022-09-09T10:28:37;24.00;57.70
40738;DHT22;54759;48.094;-1.628;2022-09-09T10:31:46;24.30;57.80
40738;DHT22;54759;48.094;-1.628;2022-09-09T10:34:55;24.20;57.80
40738;DHT22;54759;48.094;-1.628;2022-09-09T10:41:16;24.30;57.80
40738;DHT22;54759;48.094;-1.628;2022-09-09T10:44:22;24.30;57.80
40738;DHT22;54759;48.094;-1.628;2022-09-09T10:47:35;24.30;57.70
40738;DHT22;54759;48.094;-1.628;2022-09-09T10:50:42;24.20;57.60
40738;DHT22;54759;48.094;-1.628;2022-09-09T10:54:10;24.40;57.70
40738;DHT22;54759;48.094;-1.628;2022-09-09T10:57:17;24.60;57.70
40738;DHT22;54759;48.094;-1.628;2022-09-09T11:00:24;24.20;57.50
40738;DHT22;54759;48.094;-1.628;2022-09-09T11:03:26;24.70;57.70
40738;DHT22;54759;48.094;-1.628;2022-09-09T11:06:32;24.20;57.40
40738;DHT22;54759;48.094;-1.628;2022-09-09T11:09:37;24.30;57.40
40738;DHT22;54759;48.094;-1.628;2022-09-09T11:12:41;24.50;57.60
40738;DHT22;54759;48.094;-1.628;2022-09-09T11:15:44;24.90;57.70
40738;DHT22;54759;48.094;-1.628;2022-09-09T11:18:48;24.60;57.50
40738;DHT22;54759;48.094;-1.628;2022-09-09T11:21:50;24.50;57.40
40738;DHT22;54759;48.094;-1.628;2022-09-09T11:24:53;24.60;57.50
40738;DHT22;54759;48.094;-1.628;2022-09-09T11:28:00;24.50;57.50
40738;DHT22;54759;48.094;-1.628;2022-09-09T11:31:07;24.50;57.40
40738;DHT22;54759;48.094;-1.628;2022-09-09T11:34:15;24.50;57.40
40738;DHT22;54759;48.094;-1.628;2022-09-09T11:37:32;24.70;57.40
40738;DHT22;54759;48.094;-1.628;2022-09-09T11:40:39;24.60;57.30
40738;DHT22;54759;48.094;-1.628;2022-09-09T11:43:42;24.70;57.50
40738;DHT22;54759;48.094;-1.628;2022-09-09T11:46:44;24.50;57.20
40738;DHT22;54759;48.094;-1.628;2022-09-09T11:49:47;24.70;57.30
40738;DHT22;54759;48.094;-1.628;2022-09-09T11:52:49;24.80;57.40
40738;DHT22;54759;48.094;-1.628;2022-09-09T11:59:05;24.60;57.20
40738;DHT22;54759;48.094;-1.628;2022-09-09T12:02:09;24.50;57.20
40738;DHT22;54759;48.094;-1.628;2022-09-09T12:05:12;24.60;57.20
40738;DHT22;54759;48.094;-1.628;2022-09-09T12:08:16;24.40;57.10
40738;DHT22;54759;48.094;-1.628;2022-09-09T12:11:26;24.70;57.40
40738;DHT22;54759;48.094;-1.628;2022-09-09T12:14:35;24.60;57.20
40738;DHT22;54759;48.094;-1.628;2022-09-09T12:17:41;24.80;57.30
40738;DHT22;54759;48.094;-1.628;2022-09-09T12:20:49;24.70;57.30
40738;DHT22;54759;48.094;-1.628;2022-09-09T12:23:54;24.70;57.20
40738;DHT22;54759;48.094;-1.628;2022-09-09T12:26:58;24.70;57.20
40738;DHT22;54759;48.094;-1.628;2022-09-09T12:30:02;24.70;57.20
40738;DHT22;54759;48.094;-1.628;2022-09-09T12:33:08;24.80;57.20
40738;DHT22;54759;48.094;-1.628;2022-09-09T12:36:11;24.70;57.20
40738;DHT22;54759;48.094;-1.628;2022-09-09T12:39:16;24.80;57.30
40738;DHT22;54759;48.094;-1.628;2022-09-09T12:42:20;24.70;57.20
40738;DHT22;54759;48.094;-1.628;2022-09-09T12:45:23;24.90;57.30
40738;DHT22;54759;48.094;-1.628;2022-09-09T12:48:27;24.90;57.30
40738;DHT22;54759;48.094;-1.628;2022-09-09T12:51:31;24.90;57.20
40738;DHT22;54759;48.094;-1.628;2022-09-09T12:54:33;25.20;57.40
40738;DHT22;54759;48.094;-1.628;2022-09-09T12:57:36;24.70;57.20
40738;DHT22;54759;48.094;-1.628;2022-09-09T13:00:48;24.50;57.00
40738;DHT22;54759;48.094;-1.628;2022-09-09T13:03:51;24.80;57.20
40738;DHT22;54759;48.094;-1.628;2022-09-09T13:06:53;24.80;57.20
40738;DHT22;54759;48.094;-1.628;2022-09-09T13:09:54;24.70;57.80
40738;DHT22;54759;48.094;-1.628;2022-09-09T13:12:56;24.80;57.20
40738;DHT22;54759;48.094;-1.628;2022-09-09T13:16:00;24.70;57.20
40738;DHT22;54759;48.094;-1.628;2022-09-09T13:19:06;25.00;57.20
40738;DHT22;54759;48.094;-1.628;2022-09-09T13:22:12;24.90;57.20
40738;DHT22;54759;48.094;-1.628;2022-09-09T13:25:18;24.80;57.10
40738;DHT22;54759;48.094;-1.628;2022-09-09T13:28:20;24.80;57.20
40738;DHT22;54759;48.094;-1.628;2022-09-09T13:31:24;24.80;57.10
40738;DHT22;54759;48.094;-1.628;2022-09-09T13:34:29;24.80;57.10
40738;DHT22;54759;48.094;-1.628;2022-09-09T13:37:32;24.90;57.10
40738;DHT22;54759;48.094;-1.628;2022-09-09T13:40:34;24.80;57.10
40738;DHT22;54759;48.094;-1.628;2022-09-09T13:43:38;24.90;57.20
40738;DHT22;54759;48.094;-1.628;2022-09-09T13:46:43;24.80;57.10
40738;DHT22;54759;48.094;-1.628;2022-09-09T13:49:45;24.80;57.00
40738;DHT22;54759;48.094;-1.628;2022-09-09T13:52:47;24.90;57.20
40738;DHT22;54759;48.094;-1.628;2022-09-09T13:55:49;24.90;57.20
40738;DHT22;54759;48.094;-1.628;2022-09-09T13:58:54;24.60;56.90
40738;DHT22;54759;48.094;-1.628;2022-09-09T14:01:55;24.90;57.10
40738;DHT22;54759;48.094;-1.628;2022-09-09T14:05:03;24.90;57.10
40738;DHT22;54759;48.094;-1.628;2022-09-09T14:08:04;25.00;57.20
40738;DHT22;54759;48.094;-1.628;2022-09-09T14:11:07;25.00;57.30
40738;DHT22;54759;48.094;-1.628;2022-09-09T14:14:12;24.90;57.00
40738;DHT22;54759;48.094;-1.628;2022-09-09T14:17:13;24.90;57.10
40738;DHT22;54759;48.094;-1.628;2022-09-09T14:20:15;24.90;57.10
40738;DHT22;54759;48.094;-1.628;2022-09-09T14:23:18;24.90;57.10
40738;DHT22;54759;48.094;-1.628;2022-09-09T14:26:20;24.90;57.20
40738;DHT22;54759;48.094;-1.628;2022-09-09T14:29:21;24.90;57.10
40738;DHT22;54759;48.094;-1.628;2022-09-09T14:32:23;24.90;57.10
40738;DHT22;54759;48.094;-1.628;2022-09-09T14:35:25;24.90;57.10
40738;DHT22;54759;48.094;-1.628;2022-09-09T14:38:28;24.60;57.00
40738;DHT22;54759;48.094;-1.628;2022-09-09T14:41:31;25.00;57.20
40738;DHT22;54759;48.094;-1.628;2022-09-09T14:44:33;24.90;57.30
40738;DHT22;54759;48.094;-1.628;2022-09-09T14:47:36;24.80;57.10
40738;DHT22;54759;48.094;-1.628;2022-09-09T14:50:38;25.00;57.20
40738;DHT22;54759;48.094;-1.628;2022-09-09T14:53:41;25.00;57.20
40738;DHT22;54759;48.094;-1.628;2022-09-09T14:56:43;24.90;57.10
40738;DHT22;54759;48.094;-1.628;2022-09-09T14:59:44;25.00;57.20
40738;DHT22;54759;48.094;-1.628;2022-09-09T15:02:46;24.80;57.10
40738;DHT22;54759;48.094;-1.628;2022-09-09T15:05:48;24.90;57.10
40738;DHT22;54759;48.094;-1.628;2022-09-09T15:08:50;25.00;57.10
40738;DHT22;54759;48.094;-1.628;2022-09-09T15:11:53;24.80;57.10
40738;DHT22;54759;48.094;-1.628;2022-09-09T15:14:54;25.00;57.20
40738;DHT22;54759;48.094;-1.628;2022-09-09T15:17:56;25.00;57.20
40738;DHT22;54759;48.094;-1.628;2022-09-09T15:20:58;24.60;57.00
40738;DHT22;54759;48.094;-1.628;2022-09-09T15:24:00;25.00;57.20
40738;DHT22;54759;48.094;-1.628;2022-09-09T15:27:02;24.60;57.00
40738;DHT22;54759;48.094;-1.628;2022-09-09T15:30:04;25.00;57.20
40738;DHT22;54759;48.094;-1.628;2022-09-09T15:33:08;24.90;57.40
40738;DHT22;54759;48.094;-1.628;2022-09-09T15:36:15;24.80;57.10
40738;DHT22;54759;48.094;-1.628;2022-09-09T15:39:17;24.90;57.20
40738;DHT22;54759;48.094;-1.628;2022-09-09T15:42:18;24.90;57.80
40738;DHT22;54759;48.094;-1.628;2022-09-09T15:45:19;25.00;57.30
40738;DHT22;54759;48.094;-1.628;2022-09-09T15:48:22;24.90;57.20
40738;DHT22;54759;48.094;-1.628;2022-09-09T15:51:30;25.00;57.40
40738;DHT22;54759;48.094;-1.628;2022-09-09T15:54:43;24.70;57.20
40738;DHT22;54759;48.094;-1.628;2022-09-09T15:57:45;24.90;57.40
40738;DHT22;54759;48.094;-1.628;2022-09-09T16:00:46;24.70;57.20
40738;DHT22;54759;48.094;-1.628;2022-09-09T16:03:49;25.10;57.40
40738;DHT22;54759;48.094;-1.628;2022-09-09T16:06:52;24.80;57.30
40738;DHT22;54759;48.094;-1.628;2022-09-09T16:09:53;24.90;57.30
40738;DHT22;54759;48.094;-1.628;2022-09-09T16:12:55;24.70;57.30
40738;DHT22;54759;48.094;-1.628;2022-09-09T16:15:56;24.90;57.40
40738;DHT22;54759;48.094;-1.628;2022-09-09T16:19:00;24.90;57.30
40738;DHT22;54759;48.094;-1.628;2022-09-09T16:22:02;24.90;57.30
40738;DHT22;54759;48.094;-1.628;2022-09-09T16:25:05;25.00;57.40
40738;DHT22;54759;48.094;-1.628;2022-09-09T16:28:07;24.70;57.20
40738;DHT22;54759;48.094;-1.628;2022-09-09T16:31:09;24.90;57.30
40738;DHT22;54759;48.094;-1.628;2022-09-09T16:34:11;24.70;57.30
40738;DHT22;54759;48.094;-1.628;2022-09-09T16:37:13;24.70;57.20
40738;DHT22;54759;48.094;-1.628;2022-09-09T16:40:14;25.00;57.30
40738;DHT22;54759;48.094;-1.628;2022-09-09T16:43:18;24.70;57.20
40738;DHT22;54759;48.094;-1.628;2022-09-09T16:46:19;24.90;57.30
40738;DHT22;54759;48.094;-1.628;2022-09-09T16:49:22;24.90;57.30
40738;DHT22;54759;48.094;-1.628;2022-09-09T16:52:23;24.50;57.10
40738;DHT22;54759;48.094;-1.628;2022-09-09T16:55:24;24.80;57.30
40738;DHT22;54759;48.094;-1.628;2022-09-09T16:58:26;24.80;57.20
40738;DHT22;54759;48.094;-1.628;2022-09-09T17:01:28;24.90;57.30
40738;DHT22;54759;48.094;-1.628;2022-09-09T17:04:31;24.80;57.30
40738;DHT22;54759;48.094;-1.628;2022-09-09T17:07:33;24.90;57.40
40738;DHT22;54759;48.094;-1.628;2022-09-09T17:10:39;25.00;57.30
40738;DHT22;54759;48.094;-1.628;2022-09-09T17:13:41;24.70;57.20
40738;DHT22;54759;48.094;-1.628;2022-09-09T17:16:43;24.90;57.20
40738;DHT22;54759;48.094;-1.628;2022-09-09T17:19:45;24.60;57.10
40738;DHT22;54759;48.094;-1.628;2022-09-09T17:22:46;24.90;57.30
40738;DHT22;54759;48.094;-1.628;2022-09-09T17:28:59;25.00;57.30
40738;DHT22;54759;48.094;-1.628;2022-09-09T17:32:01;24.80;57.20
40738;DHT22;54759;48.094;-1.628;2022-09-09T17:35:03;24.90;57.30
40738;DHT22;54759;48.094;-1.628;2022-09-09T17:38:08;24.90;57.30
40738;DHT22;54759;48.094;-1.628;2022-09-09T17:41:10;24.70;57.20
40738;DHT22;54759;48.094;-1.628;2022-09-09T17:44:12;24.90;57.30
40738;DHT22;54759;48.094;-1.628;2022-09-09T17:47:13;24.40;57.10
40738;DHT22;54759;48.094;-1.628;2022-09-09T17:50:15;24.60;57.20
40738;DHT22;54759;48.094;-1.628;2022-09-09T17:53:16;24.70;57.20
40738;DHT22;54759;48.094;-1.628;2022-09-09T17:56:18;24.50;57.10
40738;DHT22;54759;48.094;-1.628;2022-09-09T17:59:20;24.60;57.20
40738;DHT22;54759;48.094;-1.628;2022-09-09T18:02:22;25.00;57.40
40738;DHT22;54759;48.094;-1.628;2022-09-09T18:05:24;24.60;57.20
40738;DHT22;54759;48.094;-1.628;2022-09-09T18:08:25;24.70;57.30
40738;DHT22;54759;48.094;-1.628;2022-09-09T18:11:27;24.30;57.10
40738;DHT22;54759;48.094;-1.628;2022-09-09T18:14:32;24.80;57.30
40738;DHT22;54759;48.094;-1.628;2022-09-09T18:17:35;24.40;57.10
40738;DHT22;54759;48.094;-1.628;2022-09-09T18:20:42;24.70;57.30
40738;DHT22;54759;48.094;-1.628;2022-09-09T18:23:44;24.70;57.20
40738;DHT22;54759;48.094;-1.628;2022-09-09T18:26:47;24.70;57.20
40738;DHT22;54759;48.094;-1.628;2022-09-09T18:29:49;25.00;57.30
40738;DHT22;54759;48.094;-1.628;2022-09-09T18:32:50;24.70;57.20
40738;DHT22;54759;48.094;-1.628;2022-09-09T18:35:53;24.50;57.10
40738;DHT22;54759;48.094;-1.628;2022-09-09T18:38:57;24.70;57.20
40738;DHT22;54759;48.094;-1.628;2022-09-09T18:41:59;24.70;57.20
40738;DHT22;54759;48.094;-1.628;2022-09-09T18:45:01;24.40;57.00
40738;DHT22;54759;48.094;-1.628;2022-09-09T18:48:02;24.40;57.00
40738;DHT22;54759;48.094;-1.628;2022-09-09T18:51:06;24.60;57.10
40738;DHT22;54759;48.094;-1.628;2022-09-09T18:54:09;24.50;57.00
40738;DHT22;54759;48.094;-1.628;2022-09-09T18:57:11;24.60;57.10
40738;DHT22;54759;48.094;-1.628;2022-09-09T19:00:12;24.40;57.10
40738;DHT22;54759;48.094;-1.628;2022-09-09T19:03:14;24.30;56.90
40738;DHT22;54759;48.094;-1.628;2022-09-09T19:06:18;24.70;57.30
40738;DHT22;54759;48.094;-1.628;2022-09-09T19:09:20;24.50;57.10
40738;DHT22;54759;48.094;-1.628;2022-09-09T19:12:21;24.50;57.10
40738;DHT22;54759;48.094;-1.628;2022-09-09T19:15:23;24.40;57.10